sensor_id;sensor_type;location;lat;lon;timestamp;pressure;altitude;pressure_sealevel;temperature;humidity
61109;BME280;46995;55.740;37.402;2023-12-22T00:01:24;97248.97;;;1.18;85.51
61109;BME280;46995;55.740;37.402;2023-12-22T00:03:49;97241.31;;;1.17;85.35
61109;BME280;46995;55.740;37.402;2023-12-22T00:06:15;97246.78;;;1.14;85.35
61109;BME280;46995;55.740;37.402;2023-12-22T00:08:41;97242.78;;;1.10;85.67
61109;BME280;46995;55.740;37.402;2023-12-22T00:11:07;97243.75;;;1.09;85.39
61109;BME280;46995;55.740;37.402;2023-12-22T00:13:33;97242.09;;;1.08;85.64
61109;BME280;46995;55.740;37.402;2023-12-22T00:15:59;97241.25;;;1.07;85.41
61109;BME280;46995;55.740;37.402;2023-12-22T00:18:25;97232.75;;;1.05;85.46
61109;BME280;46995;55.740;37.402;2023-12-22T00:20:51;97231.00;;;1.06;85.57
61109;BME280;46995;55.740;37.402;2023-12-22T00:23:17;97157.66;;;0.62;85.50
61109;BME280;46995;55.740;37.402;2023-12-22T00:25:42;97233.19;;;1.10;85.24
61109;BME280;46995;55.740;37.402;2023-12-22T00:28:08;97226.63;;;1.06;84.96
61109;BME280;46995;55.740;37.402;2023-12-22T00:30:33;97225.94;;;1.04;85.06
61109;BME280;46995;55.740;37.402;2023-12-22T00:32:59;97219.91;;;1.04;85.32
61109;BME280;46995;55.740;37.402;2023-12-22T00:35:24;97214.97;;;1.01;85.23
61109;BME280;46995;55.740;37.402;2023-12-22T00:37:50;97216.88;;;0.99;85.47
61109;BME280;46995;55.740;37.402;2023-12-22T00:40:16;97214.41;;;0.97;85.42
61109;BME280;46995;55.740;37.402;2023-12-22T00:42:41;97208.66;;;0.94;85.06
61109;BME280;46995;55.740;37.402;2023-12-22T00:45:07;97208.78;;;0.92;85.57
61109;BME280;46995;55.740;37.402;2023-12-22T00:47:33;97207.97;;;0.92;85.43
61109;BME280;46995;55.740;37.402;2023-12-22T00:50:01;97216.81;;;0.89;85.16
61109;BME280;46995;55.740;37.402;2023-12-22T00:52:28;97204.09;;;0.86;85.15
61109;BME280;46995;55.740;37.402;2023-12-22T00:54:53;97205.44;;;0.80;84.96
61109;BME280;46995;55.740;37.402;2023-12-22T00:57:20;97211.84;;;0.76;85.50
61109;BME280;46995;55.740;37.402;2023-12-22T00:59:46;97209.38;;;0.75;85.48
61109;BME280;46995;55.740;37.402;2023-12-22T01:02:13;97206.88;;;0.73;85.37
61109;BME280;46995;55.740;37.402;2023-12-22T01:04:39;97199.09;;;0.73;85.53
61109;BME280;46995;55.740;37.402;2023-12-22T01:07:06;97208.81;;;0.71;85.32
61109;BME280;46995;55.740;37.402;2023-12-22T01:09:32;97207.16;;;0.70;85.63
61109;BME280;46995;55.740;37.402;2023-12-22T01:11:58;97208.09;;;0.69;85.36
61109;BME280;46995;55.740;37.402;2023-12-22T01:14:24;97211.53;;;0.70;85.05
61109;BME280;46995;55.740;37.402;2023-12-22T01:16:51;97208.81;;;0.71;85.50
61109;BME280;46995;55.740;37.402;2023-12-22T01:19:16;97204.28;;;0.73;85.03
61109;BME280;46995;55.740;37.402;2023-12-22T01:21:42;97208.53;;;0.74;84.96
61109;BME280;46995;55.740;37.402;2023-12-22T01:24:07;97206.66;;;0.76;85.20
61109;BME280;46995;55.740;37.402;2023-12-22T01:26:33;97203.94;;;0.78;85.09
61109;BME280;46995;55.740;37.402;2023-12-22T01:28:59;97204.38;;;0.83;85.13
61109;BME280;46995;55.740;37.402;2023-12-22T01:31:24;97195.47;;;0.85;84.99
61109;BME280;46995;55.740;37.402;2023-12-22T01:33:50;97202.88;;;0.90;84.78
61109;BME280;46995;55.740;37.402;2023-12-22T01:36:16;97193.63;;;0.97;84.68
61109;BME280;46995;55.740;37.402;2023-12-22T01:38:41;97190.91;;;0.99;84.64
61109;BME280;46995;55.740;37.402;2023-12-22T01:41:07;97187.09;;;1.03;84.64
61109;BME280;46995;55.740;37.402;2023-12-22T01:43:34;97189.16;;;1.09;84.45
61109;BME280;46995;55.740;37.402;2023-12-22T01:45:59;97195.03;;;1.11;84.80
61109;BME280;46995;55.740;37.402;2023-12-22T01:48:26;97183.69;;;1.12;84.64
61109;BME280;46995;55.740;37.402;2023-12-22T01:50:53;97189.59;;;1.14;84.53
61109;BME280;46995;55.740;37.402;2023-12-22T01:53:20;97184.00;;;1.18;84.76
61109;BME280;46995;55.740;37.402;2023-12-22T01:55:47;97177.84;;;1.19;84.67
61109;BME280;46995;55.740;37.402;2023-12-22T01:58:13;97184.69;;;1.20;84.19
61109;BME280;46995;55.740;37.402;2023-12-22T02:00:39;97181.41;;;1.18;84.38
61109;BME280;46995;55.740;37.402;2023-12-22T02:03:04;97183.44;;;1.15;84.35
61109;BME280;46995;55.740;37.402;2023-12-22T02:05:31;97182.75;;;1.13;84.89
61109;BME280;46995;55.740;37.402;2023-12-22T02:07:57;97177.00;;;1.09;84.52
61109;BME280;46995;55.740;37.402;2023-12-22T02:10:23;97180.53;;;1.08;84.57
61109;BME280;46995;55.740;37.402;2023-12-22T02:12:49;97177.94;;;1.08;84.56
61109;BME280;46995;55.740;37.402;2023-12-22T02:15:14;97170.03;;;1.10;84.39
61109;BME280;46995;55.740;37.402;2023-12-22T02:17:44;97170.47;;;1.15;84.84
61109;BME280;46995;55.740;37.402;2023-12-22T02:20:13;97167.31;;;1.21;84.41
61109;BME280;46995;55.740;37.402;2023-12-22T02:22:38;97158.31;;;1.25;84.26
61109;BME280;46995;55.740;37.402;2023-12-22T02:25:04;97154.59;;;1.27;83.90
61109;BME280;46995;55.740;37.402;2023-12-22T02:27:44;97151.06;;;1.28;84.01
61109;BME280;46995;55.740;37.402;2023-12-22T02:32:44;97151.63;;;1.42;84.25
61109;BME280;46995;55.740;37.402;2023-12-22T02:35:15;97159.06;;;1.46;84.37
61109;BME280;46995;55.740;37.402;2023-12-22T02:37:42;97155.34;;;1.49;84.24
61109;BME280;46995;55.740;37.402;2023-12-22T02:40:08;97144.81;;;1.50;83.91
61109;BME280;46995;55.740;37.402;2023-12-22T02:42:38;97148.38;;;1.49;83.95
61109;BME280;46995;55.740;37.402;2023-12-22T02:45:05;97156.03;;;1.51;83.74
61109;BME280;46995;55.740;37.402;2023-12-22T02:47:31;97155.22;;;1.50;83.81
61109;BME280;46995;55.740;37.402;2023-12-22T02:49:59;97142.47;;;1.47;84.09
61109;BME280;46995;55.740;37.402;2023-12-22T02:52:25;97135.66;;;1.46;83.72
61109;BME280;46995;55.740;37.402;2023-12-22T02:54:50;97133.03;;;1.46;84.06
61109;BME280;46995;55.740;37.402;2023-12-22T02:57:16;97121.00;;;1.45;84.01
61109;BME280;46995;55.740;37.402;2023-12-22T02:59:42;97129.75;;;1.44;84.03
61109;BME280;46995;55.740;37.402;2023-12-22T03:02:07;97112.78;;;1.40;83.25
61109;BME280;46995;55.740;37.402;2023-12-22T03:04:36;97121.53;;;1.39;83.38
61109;BME280;46995;55.740;37.402;2023-12-22T03:07:02;97132.75;;;1.40;83.89
61109;BME280;46995;55.740;37.402;2023-12-22T03:09:28;97137.41;;;1.46;83.45
61109;BME280;46995;55.740;37.402;2023-12-22T03:11:54;97122.91;;;1.43;83.63
61109;BME280;46995;55.740;37.402;2023-12-22T03:14:21;97114.41;;;1.41;82.97
61109;BME280;46995;55.740;37.402;2023-12-22T03:19:40;97128.63;;;1.47;82.96
61109;BME280;46995;55.740;37.402;2023-12-22T03:22:06;97123.72;;;1.44;82.90
61109;BME280;46995;55.740;37.402;2023-12-22T03:24:31;97130.56;;;1.35;82.42
61109;BME280;46995;55.740;37.402;2023-12-22T03:26:57;97136.00;;;1.32;83.04
61109;BME280;46995;55.740;37.402;2023-12-22T03:29:23;97126.56;;;1.31;83.15
61109;BME280;46995;55.740;37.402;2023-12-22T03:31:49;97130.81;;;1.32;83.20
61109;BME280;46995;55.740;37.402;2023-12-22T03:34:14;97123.97;;;1.31;82.73
61109;BME280;46995;55.740;37.402;2023-12-22T03:36:40;97122.47;;;1.28;83.10
61109;BME280;46995;55.740;37.402;2023-12-22T03:39:06;97116.44;;;1.28;83.15
61109;BME280;46995;55.740;37.402;2023-12-22T03:41:31;97120.38;;;1.22;81.70
61109;BME280;46995;55.740;37.402;2023-12-22T03:43:57;97126.81;;;1.18;82.41
61109;BME280;46995;55.740;37.402;2023-12-22T03:46:23;97117.09;;;1.20;82.63
61109;BME280;46995;55.740;37.402;2023-12-22T03:48:52;97109.28;;;1.20;82.60
61109;BME280;46995;55.740;37.402;2023-12-22T03:51:18;97110.41;;;1.18;82.52
61109;BME280;46995;55.740;37.402;2023-12-22T03:53:43;97103.97;;;1.22;82.90
61109;BME280;46995;55.740;37.402;2023-12-22T03:56:09;97101.94;;;1.25;82.72
61109;BME280;46995;55.740;37.402;2023-12-22T03:58:35;97096.59;;;1.27;82.69
61109;BME280;46995;55.740;37.402;2023-12-22T04:01:01;97093.03;;;1.28;82.81
61109;BME280;46995;55.740;37.402;2023-12-22T04:03:26;97085.13;;;1.30;82.52
61109;BME280;46995;55.740;37.402;2023-12-22T04:05:52;97092.34;;;1.26;81.92
61109;BME280;46995;55.740;37.402;2023-12-22T04:08:18;97086.47;;;1.24;81.86
61109;BME280;46995;55.740;37.402;2023-12-22T04:10:45;97089.75;;;1.26;82.07
61109;BME280;46995;55.740;37.402;2023-12-22T04:13:12;97092.50;;;1.24;81.52
61109;BME280;46995;55.740;37.402;2023-12-22T04:15:38;97078.56;;;1.25;81.20
61109;BME280;46995;55.740;37.402;2023-12-22T04:18:05;97081.28;;;1.24;81.68
61109;BME280;46995;55.740;37.402;2023-12-22T04:20:31;97078.56;;;1.25;82.44
61109;BME280;46995;55.740;37.402;2023-12-22T04:22:57;97081.00;;;1.27;82.09
61109;BME280;46995;55.740;37.402;2023-12-22T04:25:23;97077.44;;;1.28;82.29
61109;BME280;46995;55.740;37.402;2023-12-22T04:27:50;97074.72;;;1.30;81.89
61109;BME280;46995;55.740;37.402;2023-12-22T04:30:15;97069.94;;;1.25;82.11
61109;BME280;46995;55.740;37.402;2023-12-22T04:32:41;97071.81;;;1.23;82.17
61109;BME280;46995;55.740;37.402;2023-12-22T04:35:07;97075.38;;;1.22;81.68
61109;BME280;46995;55.740;37.402;2023-12-22T04:37:33;97067.69;;;1.20;81.90
61109;BME280;46995;55.740;37.402;2023-12-22T04:39:59;97059.78;;;1.22;81.97
61109;BME280;46995;55.740;37.402;2023-12-22T04:42:24;97054.34;;;1.25;82.07
61109;BME280;46995;55.740;37.402;2023-12-22T04:44:53;97051.44;;;1.28;82.53
61109;BME280;46995;55.740;37.402;2023-12-22T04:47:19;97053.75;;;1.31;82.20
61109;BME280;46995;55.740;37.402;2023-12-22T04:49:44;97052.81;;;1.32;82.40
61109;BME280;46995;55.740;37.402;2023-12-22T04:52:10;97056.09;;;1.34;82.04
61109;BME280;46995;55.740;37.402;2023-12-22T04:54:36;97043.94;;;1.35;81.94
61109;BME280;46995;55.740;37.402;2023-12-22T04:57:02;97047.34;;;1.35;81.90
61109;BME280;46995;55.740;37.402;2023-12-22T04:59:27;97049.25;;;1.33;82.14
61109;BME280;46995;55.740;37.402;2023-12-22T05:01:53;97042.41;;;1.32;82.12
61109;BME280;46995;55.740;37.402;2023-12-22T05:04:19;97054.47;;;1.33;81.80
61109;BME280;46995;55.740;37.402;2023-12-22T05:06:45;97047.34;;;1.35;81.77
61109;BME280;46995;55.740;37.402;2023-12-22T05:09:11;97043.78;;;1.36;81.89
61109;BME280;46995;55.740;37.402;2023-12-22T05:11:36;97040.50;;;1.34;80.18
61109;BME280;46995;55.740;37.402;2023-12-22T05:14:02;97046.78;;;1.32;81.32
61109;BME280;46995;55.740;37.402;2023-12-22T05:16:28;97046.38;;;1.26;81.05
61109;BME280;46995;55.740;37.402;2023-12-22T05:18:56;97046.53;;;1.25;81.45
61109;BME280;46995;55.740;37.402;2023-12-22T05:21:23;97049.78;;;1.27;81.67
61109;BME280;46995;55.740;37.402;2023-12-22T05:23:49;97052.41;;;1.27;82.01
61109;BME280;46995;55.740;37.402;2023-12-22T05:26:19;97051.72;;;1.25;81.58
61109;BME280;46995;55.740;37.402;2023-12-22T05:28:45;97048.72;;;1.20;81.71
61109;BME280;46995;55.740;37.402;2023-12-22T05:31:10;97039.94;;;1.21;81.74
61109;BME280;46995;55.740;37.402;2023-12-22T05:33:36;97046.91;;;1.20;81.61
61109;BME280;46995;55.740;37.402;2023-12-22T05:36:02;97055.53;;;1.21;81.61
61109;BME280;46995;55.740;37.402;2023-12-22T05:38:28;97051.03;;;1.23;81.65
61109;BME280;46995;55.740;37.402;2023-12-22T05:40:54;97047.59;;;1.22;81.63
61109;BME280;46995;55.740;37.402;2023-12-22T05:43:19;97050.09;;;1.24;81.48
61109;BME280;46995;55.740;37.402;2023-12-22T05:45:46;97056.22;;;1.23;81.61
61109;BME280;46995;55.740;37.402;2023-12-22T05:48:12;97057.19;;;1.22;81.62
61109;BME280;46995;55.740;37.402;2023-12-22T05:50:38;97051.97;;;1.22;81.39
61109;BME280;46995;55.740;37.402;2023-12-22T05:53:03;97063.31;;;1.21;80.99
61109;BME280;46995;55.740;37.402;2023-12-22T05:55:29;97065.09;;;1.20;81.62
61109;BME280;46995;55.740;37.402;2023-12-22T05:57:55;97058.97;;;1.21;81.84
61109;BME280;46995;55.740;37.402;2023-12-22T06:00:21;97059.38;;;1.17;81.36
61109;BME280;46995;55.740;37.402;2023-12-22T06:02:47;97056.22;;;1.13;81.48
61109;BME280;46995;55.740;37.402;2023-12-22T06:05:12;97065.09;;;1.11;81.45
61109;BME280;46995;55.740;37.402;2023-12-22T06:07:38;97063.72;;;1.07;81.44
61109;BME280;46995;55.740;37.402;2023-12-22T06:10:07;97067.81;;;1.00;81.48
61109;BME280;46995;55.740;37.402;2023-12-22T06:12:34;97069.97;;;0.95;81.68
61109;BME280;46995;55.740;37.402;2023-12-22T06:15:00;97073.81;;;0.91;82.05
61109;BME280;46995;55.740;37.402;2023-12-22T06:17:26;97070.38;;;0.90;81.70
61109;BME280;46995;55.740;37.402;2023-12-22T06:19:51;97065.88;;;0.92;82.27
61109;BME280;46995;55.740;37.402;2023-12-22T06:22:17;97067.53;;;0.93;82.15
61109;BME280;46995;55.740;37.402;2023-12-22T06:24:43;97075.88;;;0.97;82.42
61109;BME280;46995;55.740;37.402;2023-12-22T06:27:10;97072.06;;;1.01;82.37
61109;BME280;46995;55.740;37.402;2023-12-22T06:29:36;97067.56;;;1.03;81.83
61109;BME280;46995;55.740;37.402;2023-12-22T06:32:02;97066.44;;;1.05;81.79
61109;BME280;46995;55.740;37.402;2023-12-22T06:34:28;97063.47;;;1.10;82.22
61109;BME280;46995;55.740;37.402;2023-12-22T06:36:54;97076.88;;;1.15;82.18
61109;BME280;46995;55.740;37.402;2023-12-22T06:39:20;97078.50;;;1.16;81.76
61109;BME280;46995;55.740;37.402;2023-12-22T06:41:47;97087.00;;;1.18;81.61
61109;BME280;46995;55.740;37.402;2023-12-22T06:44:13;97079.09;;;1.19;81.72
61109;BME280;46995;55.740;37.402;2023-12-22T06:46:39;97078.25;;;1.19;81.60
61109;BME280;46995;55.740;37.402;2023-12-22T06:49:04;97077.84;;;1.23;81.81
61109;BME280;46995;55.740;37.402;2023-12-22T06:51:31;97070.88;;;1.24;81.27
61109;BME280;46995;55.740;37.402;2023-12-22T06:53:57;97077.72;;;1.25;81.71
61109;BME280;46995;55.740;37.402;2023-12-22T06:56:26;97056.09;;;1.15;81.46
61109;BME280;46995;55.740;37.402;2023-12-22T06:58:52;97079.09;;;1.29;81.59
61109;BME280;46995;55.740;37.402;2023-12-22T07:01:28;97070.59;;;1.37;81.30
61109;BME280;46995;55.740;37.402;2023-12-22T07:03:54;97082.94;;;1.44;81.44
61109;BME280;46995;55.740;37.402;2023-12-22T07:06:20;97084.59;;;1.55;81.29
61109;BME280;46995;55.740;37.402;2023-12-22T07:11:24;97081.84;;;1.56;80.45
61109;BME280;46995;55.740;37.402;2023-12-22T07:13:49;97083.47;;;1.57;81.35
61109;BME280;46995;55.740;37.402;2023-12-22T07:16:15;97084.31;;;1.58;81.21
61109;BME280;46995;55.740;37.402;2023-12-22T07:18:42;97079.94;;;1.58;81.08
61109;BME280;46995;55.740;37.402;2023-12-22T07:21:07;97067.88;;;1.57;81.33
61109;BME280;46995;55.740;37.402;2023-12-22T07:23:33;97068.16;;;1.54;81.59
61109;BME280;46995;55.740;37.402;2023-12-22T07:25:58;97076.09;;;1.53;81.77
61109;BME280;46995;55.740;37.402;2023-12-22T07:28:24;97073.91;;;1.48;81.44
61109;BME280;46995;55.740;37.402;2023-12-22T07:30:50;97069.25;;;1.42;81.45
61109;BME280;46995;55.740;37.402;2023-12-22T07:33:15;97068.69;;;1.39;81.11
61109;BME280;46995;55.740;37.402;2023-12-22T07:35:41;97067.47;;;1.33;81.41
61109;BME280;46995;55.740;37.402;2023-12-22T07:38:07;97064.97;;;1.22;80.61
61109;BME280;46995;55.740;37.402;2023-12-22T07:40:34;97058.94;;;1.12;80.89
61109;BME280;46995;55.740;37.402;2023-12-22T07:42:59;97065.63;;;1.05;81.30
61109;BME280;46995;55.740;37.402;2023-12-22T07:45:25;97059.06;;;1.01;81.68
61109;BME280;46995;55.740;37.402;2023-12-22T07:47:53;97062.75;;;0.98;81.94
61109;BME280;46995;55.740;37.402;2023-12-22T07:50:19;97048.94;;;0.98;81.80
61109;BME280;46995;55.740;37.402;2023-12-22T07:52:46;97050.84;;;0.96;81.99
61109;BME280;46995;55.740;37.402;2023-12-22T07:55:12;97051.13;;;0.93;82.05
61109;BME280;46995;55.740;37.402;2023-12-22T07:57:38;97057.38;;;0.90;81.72
61109;BME280;46995;55.740;37.402;2023-12-22T08:00:06;97051.13;;;0.93;81.58
61109;BME280;46995;55.740;37.402;2023-12-22T08:02:43;97048.94;;;0.98;81.50
61109;BME280;46995;55.740;37.402;2023-12-22T08:05:08;97048.66;;;1.01;81.95
61109;BME280;46995;55.740;37.402;2023-12-22T08:07:34;97044.72;;;1.06;81.56
61109;BME280;46995;55.740;37.402;2023-12-22T08:10:00;97042.94;;;1.07;81.20
61109;BME280;46995;55.740;37.402;2023-12-22T08:12:27;97040.22;;;1.08;81.20
61109;BME280;46995;55.740;37.402;2023-12-22T08:14:54;97022.69;;;1.10;81.21
61109;BME280;46995;55.740;37.402;2023-12-22T08:17:20;97030.91;;;1.15;81.18
61109;BME280;46995;55.740;37.402;2023-12-22T08:19:48;97023.38;;;1.22;81.09
61109;BME280;46995;55.740;37.402;2023-12-22T08:22:15;97021.06;;;1.28;81.35
61109;BME280;46995;55.740;37.402;2023-12-22T08:24:40;97021.47;;;1.34;80.98
61109;BME280;46995;55.740;37.402;2023-12-22T08:27:07;97010.81;;;1.37;80.76
61109;BME280;46995;55.740;37.402;2023-12-22T08:29:33;97007.38;;;1.36;80.77
61109;BME280;46995;55.740;37.402;2023-12-22T08:31:58;97003.56;;;1.40;80.54
61109;BME280;46995;55.740;37.402;2023-12-22T08:34:24;97006.56;;;1.45;80.71
61109;BME280;46995;55.740;37.402;2023-12-22T08:36:49;97000.00;;;1.51;80.82
61109;BME280;46995;55.740;37.402;2023-12-22T08:39:15;96998.06;;;1.53;80.45
61109;BME280;46995;55.740;37.402;2023-12-22T08:41:41;97009.28;;;1.53;80.00
61109;BME280;46995;55.740;37.402;2023-12-22T08:44:07;96997.41;;;1.51;80.37
61109;BME280;46995;55.740;37.402;2023-12-22T08:46:33;97003.56;;;1.50;80.94
61109;BME280;46995;55.740;37.402;2023-12-22T08:48:59;97010.25;;;1.52;81.08
61109;BME280;46995;55.740;37.402;2023-12-22T08:51:28;96997.94;;;1.54;80.90
61109;BME280;46995;55.740;37.402;2023-12-22T08:53:54;97001.22;;;1.56;79.42
61109;BME280;46995;55.740;37.402;2023-12-22T08:56:22;97016.69;;;1.58;79.23
61109;BME280;46995;55.740;37.402;2023-12-22T08:58:48;97001.91;;;1.58;79.77
61109;BME280;46995;55.740;37.402;2023-12-22T09:01:17;96999.31;;;1.58;78.55
61109;BME280;46995;55.740;37.402;2023-12-22T09:03:43;97005.44;;;1.57;79.70
61109;BME280;46995;55.740;37.402;2023-12-22T09:06:18;97006.41;;;1.66;79.53
61109;BME280;46995;55.740;37.402;2023-12-22T09:08:44;97011.91;;;1.73;80.19
61109;BME280;46995;55.740;37.402;2023-12-22T09:11:15;97007.66;;;1.72;79.28
61109;BME280;46995;55.740;37.402;2023-12-22T09:13:40;97013.69;;;1.72;79.53
61109;BME280;46995;55.740;37.402;2023-12-22T09:16:07;97009.00;;;1.76;79.66
61109;BME280;46995;55.740;37.402;2023-12-22T09:18:33;97015.31;;;1.83;79.14
61109;BME280;46995;55.740;37.402;2023-12-22T09:20:59;97013.09;;;1.88;78.92
61109;BME280;46995;55.740;37.402;2023-12-22T09:23:24;97009.50;;;1.89;79.55
61109;BME280;46995;55.740;37.402;2023-12-22T09:25:50;97008.13;;;1.94;79.02
61109;BME280;46995;55.740;37.402;2023-12-22T09:28:16;96993.75;;;2.00;78.29
61109;BME280;46995;55.740;37.402;2023-12-22T09:30:41;96999.22;;;2.06;77.13
61109;BME280;46995;55.740;37.402;2023-12-22T09:33:08;96991.69;;;2.03;77.51
61109;BME280;46995;55.740;37.402;2023-12-22T09:35:34;96995.38;;;2.01;77.70
61109;BME280;46995;55.740;37.402;2023-12-22T09:38:00;96983.72;;;2.05;78.51
61109;BME280;46995;55.740;37.402;2023-12-22T09:40:26;96987.41;;;2.12;77.70
61109;BME280;46995;55.740;37.402;2023-12-22T09:42:53;96984.91;;;2.20;78.41
61109;BME280;46995;55.740;37.402;2023-12-22T09:45:19;96983.28;;;2.19;75.59
61109;BME280;46995;55.740;37.402;2023-12-22T09:47:47;96980.44;;;2.12;75.16
61109;BME280;46995;55.740;37.402;2023-12-22T09:50:14;96986.06;;;2.08;77.07
61109;BME280;46995;55.740;37.402;2023-12-22T09:52:41;96984.81;;;2.12;77.30
61109;BME280;46995;55.740;37.402;2023-12-22T09:55:14;96977.53;;;2.16;77.90
61109;BME280;46995;55.740;37.402;2023-12-22T09:57:40;96977.09;;;2.20;77.43
61109;BME280;46995;55.740;37.402;2023-12-22T10:00:07;96970.50;;;2.26;77.55
61109;BME280;46995;55.740;37.402;2023-12-22T10:02:33;96966.94;;;2.27;76.41
61109;BME280;46995;55.740;37.402;2023-12-22T10:04:59;96967.38;;;2.22;75.73
61109;BME280;46995;55.740;37.402;2023-12-22T10:07:25;96956.88;;;2.14;76.32
61109;BME280;46995;55.740;37.402;2023-12-22T10:09:51;96963.97;;;2.12;77.57
61109;BME280;46995;55.740;37.402;2023-12-22T10:12:17;96964.69;;;2.14;77.84
61109;BME280;46995;55.740;37.402;2023-12-22T10:14:44;96963.41;;;2.18;77.66
61109;BME280;46995;55.740;37.402;2023-12-22T10:17:10;96962.47;;;2.19;76.20
61109;BME280;46995;55.740;37.402;2023-12-22T10:19:36;96953.41;;;2.23;76.83
61109;BME280;46995;55.740;37.402;2023-12-22T10:22:02;96955.19;;;2.23;75.00
61109;BME280;46995;55.740;37.402;2023-12-22T10:27:04;96947.50;;;2.21;76.35
61109;BME280;46995;55.740;37.402;2023-12-22T10:29:31;96942.59;;;2.18;75.69
61109;BME280;46995;55.740;37.402;2023-12-22T10:32:00;96946.44;;;2.14;77.28
61109;BME280;46995;55.740;37.402;2023-12-22T10:34:26;96950.66;;;2.15;77.58
61109;BME280;46995;55.740;37.402;2023-12-22T10:36:52;96941.78;;;2.18;76.80
61109;BME280;46995;55.740;37.402;2023-12-22T10:39:17;96950.41;;;2.18;77.45
61109;BME280;46995;55.740;37.402;2023-12-22T10:41:43;96935.44;;;2.20;78.03
61109;BME280;46995;55.740;37.402;2023-12-22T10:44:09;96934.09;;;2.16;77.41
61109;BME280;46995;55.740;37.402;2023-12-22T10:46:34;96930.84;;;2.14;77.64
61109;BME280;46995;55.740;37.402;2023-12-22T10:49:01;96931.78;;;2.13;77.99
61109;BME280;46995;55.740;37.402;2023-12-22T10:51:28;96936.03;;;2.14;77.91
61109;BME280;46995;55.740;37.402;2023-12-22T10:53:58;96929.06;;;2.15;77.14
61109;BME280;46995;55.740;37.402;2023-12-22T10:56:27;96930.84;;;2.14;77.38
61109;BME280;46995;55.740;37.402;2023-12-22T10:58:53;96928.38;;;2.12;77.51
61109;BME280;46995;55.740;37.402;2023-12-22T11:01:21;96927.53;;;2.12;77.10
61109;BME280;46995;55.740;37.402;2023-12-22T11:03:50;96924.81;;;2.13;77.53
61109;BME280;46995;55.740;37.402;2023-12-22T11:06:16;96910.00;;;2.14;75.76
61109;BME280;46995;55.740;37.402;2023-12-22T11:08:46;96909.31;;;2.12;76.39
61109;BME280;46995;55.740;37.402;2023-12-22T11:14:07;96908.63;;;2.10;77.13
61109;BME280;46995;55.740;37.402;2023-12-22T11:16:33;96917.13;;;2.12;77.04
61109;BME280;46995;55.740;37.402;2023-12-22T11:19:00;96905.22;;;2.09;76.48
61109;BME280;46995;55.740;37.402;2023-12-22T11:21:26;96913.84;;;2.10;77.24
61109;BME280;46995;55.740;37.402;2023-12-22T11:23:53;96906.72;;;2.12;76.61
61109;BME280;46995;55.740;37.402;2023-12-22T11:26:19;96907.69;;;2.11;76.86
61109;BME280;46995;55.740;37.402;2023-12-22T11:28:45;96915.78;;;2.08;76.85
61109;BME280;46995;55.740;37.402;2023-12-22T11:31:13;96906.63;;;2.04;77.71
61109;BME280;46995;55.740;37.402;2023-12-22T11:33:57;96899.38;;;1.98;77.13
61109;BME280;46995;55.740;37.402;2023-12-22T11:36:24;96902.16;;;1.87;76.61
61109;BME280;46995;55.740;37.402;2023-12-22T11:38:51;96904.25;;;1.74;77.11
61109;BME280;46995;55.740;37.402;2023-12-22T11:41:18;96909.91;;;1.59;77.06
61109;BME280;46995;55.740;37.402;2023-12-22T11:43:46;96912.41;;;1.51;76.98
61109;BME280;46995;55.740;37.402;2023-12-22T11:46:12;96907.75;;;1.45;76.86
61109;BME280;46995;55.740;37.402;2023-12-22T11:48:46;96903.13;;;1.39;77.42
61109;BME280;46995;55.740;37.402;2023-12-22T11:51:12;96897.91;;;1.39;77.88
61109;BME280;46995;55.740;37.402;2023-12-22T11:53:38;96896.97;;;1.40;78.16
61109;BME280;46995;55.740;37.402;2023-12-22T11:56:07;96896.97;;;1.40;77.67
61109;BME280;46995;55.740;37.402;2023-12-22T11:58:39;96890.38;;;1.36;77.47
61109;BME280;46995;55.740;37.402;2023-12-22T12:01:06;96885.88;;;1.38;77.47
61109;BME280;46995;55.740;37.402;2023-12-22T12:03:32;96891.38;;;1.35;77.21
61109;BME280;46995;55.740;37.402;2023-12-22T12:08:38;96894.63;;;1.37;77.58
61109;BME280;46995;55.740;37.402;2023-12-22T12:11:04;96897.09;;;1.39;77.71
61109;BME280;46995;55.740;37.402;2023-12-22T12:13:32;96897.91;;;1.39;77.78
61109;BME280;46995;55.740;37.402;2023-12-22T12:15:59;96896.41;;;1.37;78.01
61109;BME280;46995;55.740;37.402;2023-12-22T12:18:30;96896.81;;;1.32;77.68
61109;BME280;46995;55.740;37.402;2023-12-22T12:20:56;96886.84;;;1.27;77.76
61109;BME280;46995;55.740;37.402;2023-12-22T12:23:25;96888.22;;;1.22;77.51
61109;BME280;46995;55.740;37.402;2023-12-22T12:25:52;96889.75;;;1.15;77.38
61109;BME280;46995;55.740;37.402;2023-12-22T12:28:24;96891.38;;;1.06;76.62
61109;BME280;46995;55.740;37.402;2023-12-22T12:30:52;96895.50;;;0.99;76.74
61109;BME280;46995;55.740;37.402;2023-12-22T12:33:26;96884.13;;;1.00;77.45
61109;BME280;46995;55.740;37.402;2023-12-22T12:35:53;96874.97;;;1.06;77.47
61109;BME280;46995;55.740;37.402;2023-12-22T12:38:23;96882.09;;;1.13;77.29
61109;BME280;46995;55.740;37.402;2023-12-22T12:40:51;96882.38;;;1.20;77.84
61109;BME280;46995;55.740;37.402;2023-12-22T12:43:17;96877.97;;;1.20;77.80
61109;BME280;46995;55.740;37.402;2023-12-22T12:45:44;96878.25;;;1.17;77.25
61109;BME280;46995;55.740;37.402;2023-12-22T12:48:10;96871.81;;;1.12;77.82
61109;BME280;46995;55.740;37.402;2023-12-22T12:50:36;96856.38;;;1.01;77.48
61109;BME280;46995;55.740;37.402;2023-12-22T12:53:01;96871.31;;;0.99;77.55
61109;BME280;46995;55.740;37.402;2023-12-22T12:55:27;96872.38;;;1.06;77.89
61109;BME280;46995;55.740;37.402;2023-12-22T12:57:54;96866.22;;;1.07;78.36
61109;BME280;46995;55.740;37.402;2023-12-22T13:03:04;96870.47;;;1.08;78.19
61109;BME280;46995;55.740;37.402;2023-12-22T13:05:30;96868.69;;;1.08;78.06
61109;BME280;46995;55.740;37.402;2023-12-22T13:08:09;96884.28;;;1.08;78.37
61109;BME280;46995;55.740;37.402;2023-12-22T13:10:35;96877.97;;;1.11;78.37
61109;BME280;46995;55.740;37.402;2023-12-22T13:13:00;96876.47;;;1.18;78.42
61109;BME280;46995;55.740;37.402;2023-12-22T13:15:26;96867.84;;;1.17;77.86